sensor_id;sensor_type;location;lat;lon;timestamp;P1;durP1;ratioP1;P2;durP2;ratioP2
5900;SDS011;2976;49.764;9.796;2022-10-22T00:01:40;9.53;;;4.63;;
5900;SDS011;2976;49.764;9.796;2022-10-22T00:04:06;6.17;;;3.93;;
5900;SDS011;2976;49.764;9.796;2022-10-22T00:06:32;8.90;;;4.27;;
5900;SDS011;2976;49.764;9.796;2022-10-22T00:08:57;8.80;;;2.67;;
5900;SDS011;2976;49.764;9.796;2022-10-22T00:11:23;10.23;;;2.90;;
5900;SDS011;2976;49.764;9.796;2022-10-22T00:13:49;5.27;;;2.50;;
5900;SDS011;2976;49.764;9.796;2022-10-22T00:16:14;5.67;;;2.40;;
5900;SDS011;2976;49.764;9.796;2022-10-22T00:18:40;3.60;;;2.63;;
5900;SDS011;2976;49.764;9.796;2022-10-22T00:21:06;7.07;;;3.00;;
5900;SDS011;2976;49.764;9.796;2022-10-22T00:23:32;7.20;;;2.80;;
5900;SDS011;2976;49.764;9.796;2022-10-22T00:25:58;6.60;;;3.07;;
5900;SDS011;2976;49.764;9.796;2022-10-22T00:28:23;5.60;;;2.87;;
5900;SDS011;2976;49.764;9.796;2022-10-22T00:30:59;2.60;;;2.40;;
5900;SDS011;2976;49.764;9.796;2022-10-22T00:33:25;3.57;;;2.97;;
5900;SDS011;2976;49.764;9.796;2022-10-22T00:35:53;2.73;;;2.53;;
5900;SDS011;2976;49.764;9.796;2022-10-22T00:38:18;3.87;;;3.10;;
5900;SDS011;2976;49.764;9.796;2022-10-22T00:40:44;5.20;;;2.77;;
5900;SDS011;2976;49.764;9.796;2022-10-22T00:43:11;6.63;;;2.70;;
5900;SDS011;2976;49.764;9.796;2022-10-22T00:45:38;4.50;;;2.40;;
5900;SDS011;2976;49.764;9.796;2022-10-22T00:48:07;4.03;;;2.60;;
5900;SDS011;2976;49.764;9.796;2022-10-22T00:53:25;2.63;;;2.47;;
5900;SDS011;2976;49.764;9.796;2022-10-22T00:55:54;7.57;;;3.30;;
5900;SDS011;2976;49.764;9.796;2022-10-22T00:58:21;4.50;;;2.80;;
5900;SDS011;2976;49.764;9.796;2022-10-22T01:00:50;8.37;;;2.17;;
5900;SDS011;2976;49.764;9.796;2022-10-22T01:03:16;2.60;;;2.40;;
5900;SDS011;2976;49.764;9.796;2022-10-22T01:05:42;7.27;;;2.90;;
5900;SDS011;2976;49.764;9.796;2022-10-22T01:08:24;4.83;;;2.50;;
5900;SDS011;2976;49.764;9.796;2022-10-22T01:11:04;2.60;;;2.37;;
5900;SDS011;2976;49.764;9.796;2022-10-22T01:16:29;2.57;;;2.17;;
5900;SDS011;2976;49.764;9.796;2022-10-22T01:30:46;7.50;;;2.80;;
5900;SDS011;2976;49.764;9.796;2022-10-22T01:33:16;8.73;;;2.80;;
5900;SDS011;2976;49.764;9.796;2022-10-22T01:35:45;5.07;;;2.70;;
5900;SDS011;2976;49.764;9.796;2022-10-22T01:38:17;3.10;;;2.80;;
5900;SDS011;2976;49.764;9.796;2022-10-22T01:40:46;4.37;;;2.80;;
5900;SDS011;2976;49.764;9.796;2022-10-22T01:43:13;2.93;;;2.60;;
5900;SDS011;2976;49.764;9.796;2022-10-22T01:45:41;5.70;;;3.13;;
5900;SDS011;2976;49.764;9.796;2022-10-22T01:56:30;5.87;;;2.60;;
5900;SDS011;2976;49.764;9.796;2022-10-22T01:59:38;3.03;;;2.50;;
5900;SDS011;2976;49.764;9.796;2022-10-22T02:05:06;6.90;;;3.37;;
5900;SDS011;2976;49.764;9.796;2022-10-22T02:07:48;5.97;;;2.33;;
5900;SDS011;2976;49.764;9.796;2022-10-22T02:10:16;10.63;;;3.50;;
5900;SDS011;2976;49.764;9.796;2022-10-22T02:12:43;2.50;;;2.30;;
5900;SDS011;2976;49.764;9.796;2022-10-22T02:15:14;5.37;;;2.70;;
5900;SDS011;2976;49.764;9.796;2022-10-22T02:17:43;4.53;;;3.20;;
5900;SDS011;2976;49.764;9.796;2022-10-22T02:20:17;7.20;;;2.77;;
5900;SDS011;2976;49.764;9.796;2022-10-22T02:22:47;4.70;;;3.27;;
5900;SDS011;2976;49.764;9.796;2022-10-22T02:25:12;4.30;;;3.13;;
5900;SDS011;2976;49.764;9.796;2022-10-22T02:27:40;3.53;;;3.03;;
5900;SDS011;2976;49.764;9.796;2022-10-22T02:30:13;4.60;;;3.30;;
5900;SDS011;2976;49.764;9.796;2022-10-22T02:32:43;2.13;;;2.00;;
5900;SDS011;2976;49.764;9.796;2022-10-22T02:35:17;4.33;;;2.90;;
5900;SDS011;2976;49.764;9.796;2022-10-22T02:37:45;2.63;;;2.20;;
5900;SDS011;2976;49.764;9.796;2022-10-22T02:40:11;6.13;;;2.47;;
5900;SDS011;2976;49.764;9.796;2022-10-22T02:42:37;4.23;;;3.63;;
5900;SDS011;2976;49.764;9.796;2022-10-22T02:45:05;4.70;;;2.43;;
5900;SDS011;2976;49.764;9.796;2022-10-22T02:47:31;4.43;;;2.37;;
5900;SDS011;2976;49.764;9.796;2022-10-22T02:49:56;2.43;;;2.23;;
5900;SDS011;2976;49.764;9.796;2022-10-22T02:52:22;3.77;;;1.87;;
5900;SDS011;2976;49.764;9.796;2022-10-22T02:54:48;2.40;;;2.13;;
5900;SDS011;2976;49.764;9.796;2022-10-22T02:57:13;3.33;;;2.93;;
5900;SDS011;2976;49.764;9.796;2022-10-22T02:59:39;4.77;;;2.10;;
5900;SDS011;2976;49.764;9.796;2022-10-22T03:02:05;3.70;;;2.50;;
5900;SDS011;2976;49.764;9.796;2022-10-22T03:04:30;6.17;;;2.10;;
5900;SDS011;2976;49.764;9.796;2022-10-22T03:06:56;3.07;;;2.10;;
5900;SDS011;2976;49.764;9.796;2022-10-22T03:09:21;2.43;;;1.63;;
5900;SDS011;2976;49.764;9.796;2022-10-22T03:11:47;6.23;;;2.20;;
5900;SDS011;2976;49.764;9.796;2022-10-22T03:14:12;2.83;;;1.47;;
5900;SDS011;2976;49.764;9.796;2022-10-22T03:16:38;3.10;;;1.73;;
5900;SDS011;2976;49.764;9.796;2022-10-22T03:19:03;2.97;;;1.73;;
5900;SDS011;2976;49.764;9.796;2022-10-22T03:21:47;5.10;;;1.87;;
5900;SDS011;2976;49.764;9.796;2022-10-22T03:24:17;2.23;;;1.50;;
5900;SDS011;2976;49.764;9.796;2022-10-22T03:26:47;7.70;;;1.63;;
5900;SDS011;2976;49.764;9.796;2022-10-22T03:29:15;3.57;;;1.50;;
5900;SDS011;2976;49.764;9.796;2022-10-22T03:31:41;5.23;;;1.80;;
5900;SDS011;2976;49.764;9.796;2022-10-22T03:34:07;19.40;;;1.43;;
5900;SDS011;2976;49.764;9.796;2022-10-22T03:36:33;1.60;;;1.10;;
5900;SDS011;2976;49.764;9.796;2022-10-22T03:38:59;3.10;;;1.70;;
5900;SDS011;2976;49.764;9.796;2022-10-22T03:41:26;1.20;;;1.10;;
5900;SDS011;2976;49.764;9.796;2022-10-22T03:43:52;2.53;;;1.10;;
5900;SDS011;2976;49.764;9.796;2022-10-22T03:46:18;4.57;;;1.53;;
5900;SDS011;2976;49.764;9.796;2022-10-22T03:48:44;2.20;;;0.97;;
5900;SDS011;2976;49.764;9.796;2022-10-22T03:51:09;0.80;;;0.80;;
5900;SDS011;2976;49.764;9.796;2022-10-22T03:53:35;2.80;;;1.03;;
5900;SDS011;2976;49.764;9.796;2022-10-22T03:56:01;2.67;;;1.13;;
5900;SDS011;2976;49.764;9.796;2022-10-22T03:58:26;3.43;;;1.10;;
5900;SDS011;2976;49.764;9.796;2022-10-22T04:00:52;1.10;;;1.00;;
5900;SDS011;2976;49.764;9.796;2022-10-22T04:03:17;1.73;;;0.93;;
5900;SDS011;2976;49.764;9.796;2022-10-22T04:05:43;1.40;;;1.30;;
5900;SDS011;2976;49.764;9.796;2022-10-22T04:08:09;3.80;;;2.23;;
5900;SDS011;2976;49.764;9.796;2022-10-22T04:10:34;2.00;;;1.40;;
5900;SDS011;2976;49.764;9.796;2022-10-22T04:13:00;3.20;;;1.87;;
5900;SDS011;2976;49.764;9.796;2022-10-22T04:15:25;3.70;;;1.23;;
5900;SDS011;2976;49.764;9.796;2022-10-22T04:17:53;1.90;;;1.20;;
5900;SDS011;2976;49.764;9.796;2022-10-22T04:20:18;1.80;;;1.00;;
5900;SDS011;2976;49.764;9.796;2022-10-22T04:22:44;1.40;;;1.30;;
5900;SDS011;2976;49.764;9.796;2022-10-22T04:25:09;7.60;;;1.60;;
5900;SDS011;2976;49.764;9.796;2022-10-22T04:27:35;1.40;;;1.30;;
5900;SDS011;2976;49.764;9.796;2022-10-22T04:30:01;1.27;;;1.17;;
5900;SDS011;2976;49.764;9.796;2022-10-22T04:32:28;1.53;;;1.30;;
5900;SDS011;2976;49.764;9.796;2022-10-22T04:34:54;2.47;;;1.23;;
5900;SDS011;2976;49.764;9.796;2022-10-22T04:37:19;1.50;;;1.40;;
5900;SDS011;2976;49.764;9.796;2022-10-22T04:39:45;2.63;;;1.30;;
5900;SDS011;2976;49.764;9.796;2022-10-22T04:42:10;7.03;;;1.67;;
5900;SDS011;2976;49.764;9.796;2022-10-22T04:44:36;10.00;;;1.50;;
5900;SDS011;2976;49.764;9.796;2022-10-22T04:47:02;2.83;;;1.33;;
5900;SDS011;2976;49.764;9.796;2022-10-22T04:49:27;2.87;;;1.90;;
5900;SDS011;2976;49.764;9.796;2022-10-22T04:51:53;3.20;;;1.87;;
5900;SDS011;2976;49.764;9.796;2022-10-22T04:54:19;3.50;;;1.40;;
5900;SDS011;2976;49.764;9.796;2022-10-22T04:56:44;2.53;;;1.27;;
5900;SDS011;2976;49.764;9.796;2022-10-22T04:59:10;5.70;;;1.57;;
5900;SDS011;2976;49.764;9.796;2022-10-22T05:01:40;1.60;;;1.40;;
5900;SDS011;2976;49.764;9.796;2022-10-22T05:04:08;6.77;;;1.70;;
5900;SDS011;2976;49.764;9.796;2022-10-22T05:06:36;2.60;;;1.60;;
5900;SDS011;2976;49.764;9.796;2022-10-22T05:09:03;3.10;;;1.60;;
5900;SDS011;2976;49.764;9.796;2022-10-22T05:11:34;2.57;;;1.97;;
5900;SDS011;2976;49.764;9.796;2022-10-22T05:14:02;3.60;;;1.47;;
5900;SDS011;2976;49.764;9.796;2022-10-22T05:16:30;6.97;;;1.37;;
5900;SDS011;2976;49.764;9.796;2022-10-22T05:18:57;3.23;;;2.40;;
5900;SDS011;2976;49.764;9.796;2022-10-22T05:21:23;2.83;;;1.43;;
5900;SDS011;2976;49.764;9.796;2022-10-22T05:23:49;1.60;;;1.50;;
5900;SDS011;2976;49.764;9.796;2022-10-22T05:26:19;1.80;;;1.70;;
5900;SDS011;2976;49.764;9.796;2022-10-22T05:28:46;2.40;;;2.20;;
5900;SDS011;2976;49.764;9.796;2022-10-22T05:31:13;1.20;;;1.20;;
5900;SDS011;2976;49.764;9.796;2022-10-22T05:33:39;1.37;;;1.30;;
5900;SDS011;2976;49.764;9.796;2022-10-22T05:36:05;1.43;;;1.30;;
5900;SDS011;2976;49.764;9.796;2022-10-22T05:38:32;1.63;;;1.53;;
5900;SDS011;2976;49.764;9.796;2022-10-22T05:40:59;1.93;;;1.57;;
5900;SDS011;2976;49.764;9.796;2022-10-22T05:43:30;5.80;;;2.00;;
5900;SDS011;2976;49.764;9.796;2022-10-22T05:45:59;1.50;;;1.40;;
5900;SDS011;2976;49.764;9.796;2022-10-22T05:48:26;1.10;;;1.03;;
5900;SDS011;2976;49.764;9.796;2022-10-22T05:50:52;3.83;;;1.90;;
5900;SDS011;2976;49.764;9.796;2022-10-22T05:53:18;2.00;;;1.90;;
5900;SDS011;2976;49.764;9.796;2022-10-22T05:55:43;1.67;;;1.50;;
5900;SDS011;2976;49.764;9.796;2022-10-22T05:58:10;6.13;;;1.97;;
5900;SDS011;2976;49.764;9.796;2022-10-22T06:00:36;1.97;;;1.87;;
5900;SDS011;2976;49.764;9.796;2022-10-22T06:03:02;2.93;;;1.80;;
5900;SDS011;2976;49.764;9.796;2022-10-22T06:05:28;10.47;;;1.70;;
5900;SDS011;2976;49.764;9.796;2022-10-22T06:07:53;3.33;;;1.20;;
5900;SDS011;2976;49.764;9.796;2022-10-22T06:10:21;1.73;;;1.33;;
5900;SDS011;2976;49.764;9.796;2022-10-22T06:12:47;4.53;;;1.67;;
5900;SDS011;2976;49.764;9.796;2022-10-22T06:15:13;3.83;;;1.57;;
5900;SDS011;2976;49.764;9.796;2022-10-22T06:17:40;1.87;;;1.70;;
5900;SDS011;2976;49.764;9.796;2022-10-22T06:20:08;3.40;;;1.30;;
5900;SDS011;2976;49.764;9.796;2022-10-22T06:22:34;3.03;;;1.23;;
5900;SDS011;2976;49.764;9.796;2022-10-22T06:25:00;3.30;;;1.30;;
5900;SDS011;2976;49.764;9.796;2022-10-22T06:27:25;3.07;;;1.27;;
5900;SDS011;2976;49.764;9.796;2022-10-22T06:29:51;0.93;;;0.90;;
5900;SDS011;2976;49.764;9.796;2022-10-22T06:32:16;9.03;;;1.37;;
5900;SDS011;2976;49.764;9.796;2022-10-22T06:34:42;2.30;;;1.40;;
5900;SDS011;2976;49.764;9.796;2022-10-22T06:37:08;1.67;;;1.57;;
5900;SDS011;2976;49.764;9.796;2022-10-22T06:39:34;1.53;;;1.43;;
5900;SDS011;2976;49.764;9.796;2022-10-22T06:41:59;1.17;;;1.07;;
5900;SDS011;2976;49.764;9.796;2022-10-22T06:44:25;1.40;;;1.30;;
5900;SDS011;2976;49.764;9.796;2022-10-22T06:46:51;1.57;;;1.27;;
5900;SDS011;2976;49.764;9.796;2022-10-22T06:49:17;1.47;;;1.37;;
5900;SDS011;2976;49.764;9.796;2022-10-22T06:51:44;6.17;;;1.00;;
5900;SDS011;2976;49.764;9.796;2022-10-22T06:54:13;4.40;;;1.20;;
5900;SDS011;2976;49.764;9.796;2022-10-22T06:56:38;1.93;;;1.50;;
5900;SDS011;2976;49.764;9.796;2022-10-22T06:59:04;1.20;;;1.20;;
5900;SDS011;2976;49.764;9.796;2022-10-22T07:01:31;2.30;;;0.90;;
5900;SDS011;2976;49.764;9.796;2022-10-22T07:03:59;3.27;;;1.33;;
5900;SDS011;2976;49.764;9.796;2022-10-22T07:06:25;2.77;;;0.77;;
5900;SDS011;2976;49.764;9.796;2022-10-22T07:08:52;3.30;;;1.10;;
5900;SDS011;2976;49.764;9.796;2022-10-22T07:11:23;2.67;;;0.80;;
5900;SDS011;2976;49.764;9.796;2022-10-22T07:13:52;1.97;;;0.77;;
5900;SDS011;2976;49.764;9.796;2022-10-22T07:16:19;1.60;;;1.50;;
5900;SDS011;2976;49.764;9.796;2022-10-22T07:18:45;8.80;;;1.10;;
5900;SDS011;2976;49.764;9.796;2022-10-22T07:21:12;1.70;;;1.20;;
5900;SDS011;2976;49.764;9.796;2022-10-22T07:23:39;2.00;;;1.20;;
5900;SDS011;2976;49.764;9.796;2022-10-22T07:26:05;4.47;;;0.80;;
5900;SDS011;2976;49.764;9.796;2022-10-22T07:28:32;2.77;;;1.03;;
5900;SDS011;2976;49.764;9.796;2022-10-22T07:30:59;1.63;;;0.93;;
5900;SDS011;2976;49.764;9.796;2022-10-22T07:33:25;2.90;;;0.67;;
5900;SDS011;2976;49.764;9.796;2022-10-22T07:35:56;1.07;;;1.00;;
5900;SDS011;2976;49.764;9.796;2022-10-22T07:38:23;0.80;;;0.80;;
5900;SDS011;2976;49.764;9.796;2022-10-22T07:40:49;3.33;;;1.40;;
5900;SDS011;2976;49.764;9.796;2022-10-22T07:43:14;1.53;;;0.90;;
5900;SDS011;2976;49.764;9.796;2022-10-22T07:45:40;1.83;;;0.80;;
5900;SDS011;2976;49.764;9.796;2022-10-22T07:48:06;2.20;;;0.80;;
5900;SDS011;2976;49.764;9.796;2022-10-22T07:50:31;3.10;;;0.80;;
5900;SDS011;2976;49.764;9.796;2022-10-22T07:52:57;1.60;;;0.80;;
5900;SDS011;2976;49.764;9.796;2022-10-22T07:55:23;1.90;;;0.93;;
5900;SDS011;2976;49.764;9.796;2022-10-22T07:57:48;2.47;;;0.63;;
5900;SDS011;2976;49.764;9.796;2022-10-22T08:00:14;1.03;;;0.70;;
5900;SDS011;2976;49.764;9.796;2022-10-22T08:02:40;3.17;;;1.43;;
5900;SDS011;2976;49.764;9.796;2022-10-22T08:05:06;4.03;;;0.60;;
5900;SDS011;2976;49.764;9.796;2022-10-22T08:07:32;2.20;;;0.70;;
5900;SDS011;2976;49.764;9.796;2022-10-22T08:09:57;1.23;;;0.70;;
5900;SDS011;2976;49.764;9.796;2022-10-22T08:12:23;2.33;;;0.73;;
5900;SDS011;2976;49.764;9.796;2022-10-22T08:14:48;0.70;;;0.70;;
5900;SDS011;2976;49.764;9.796;2022-10-22T08:17:14;0.60;;;0.60;;
5900;SDS011;2976;49.764;9.796;2022-10-22T08:19:39;0.73;;;0.50;;
5900;SDS011;2976;49.764;9.796;2022-10-22T08:22:05;2.27;;;0.70;;
5900;SDS011;2976;49.764;9.796;2022-10-22T08:24:31;0.53;;;0.53;;
5900;SDS011;2976;49.764;9.796;2022-10-22T08:26:56;4.97;;;0.90;;
5900;SDS011;2976;49.764;9.796;2022-10-22T08:29:22;2.00;;;0.60;;
5900;SDS011;2976;49.764;9.796;2022-10-22T08:31:51;13.17;;;0.63;;
5900;SDS011;2976;49.764;9.796;2022-10-22T08:34:17;2.80;;;0.63;;
5900;SDS011;2976;49.764;9.796;2022-10-22T08:36:43;0.93;;;0.93;;
5900;SDS011;2976;49.764;9.796;2022-10-22T08:39:08;4.00;;;0.93;;
5900;SDS011;2976;49.764;9.796;2022-10-22T08:47:14;1.90;;;0.80;;
5900;SDS011;2976;49.764;9.796;2022-10-22T08:50:01;0.73;;;0.73;;
5900;SDS011;2976;49.764;9.796;2022-10-22T08:52:26;1.73;;;0.87;;
5900;SDS011;2976;49.764;9.796;2022-10-22T08:54:53;5.20;;;0.57;;
5900;SDS011;2976;49.764;9.796;2022-10-22T09:00:10;0.83;;;0.50;;
5900;SDS011;2976;49.764;9.796;2022-10-22T09:05:28;2.83;;;1.03;;
5900;SDS011;2976;49.764;9.796;2022-10-22T09:08:16;0.53;;;0.50;;
5900;SDS011;2976;49.764;9.796;2022-10-22T09:10:54;0.90;;;0.50;;
5900;SDS011;2976;49.764;9.796;2022-10-22T09:13:25;0.50;;;0.50;;
5900;SDS011;2976;49.764;9.796;2022-10-22T09:15:52;2.27;;;0.43;;
5900;SDS011;2976;49.764;9.796;2022-10-22T09:18:33;0.97;;;0.60;;
5900;SDS011;2976;49.764;9.796;2022-10-22T09:23:55;0.73;;;0.60;;
5900;SDS011;2976;49.764;9.796;2022-10-22T09:26:23;1.97;;;0.67;;
5900;SDS011;2976;49.764;9.796;2022-10-22T09:28:50;0.40;;;0.40;;
5900;SDS011;2976;49.764;9.796;2022-10-22T09:31:16;0.87;;;0.87;;
5900;SDS011;2976;49.764;9.796;2022-10-22T09:33:42;2.90;;;0.70;;
5900;SDS011;2976;49.764;9.796;2022-10-22T09:36:16;0.97;;;0.40;;
5900;SDS011;2976;49.764;9.796;2022-10-22T09:38:47;0.50;;;0.50;;
5900;SDS011;2976;49.764;9.796;2022-10-22T09:41:15;3.20;;;0.50;;
5900;SDS011;2976;49.764;9.796;2022-10-22T09:43:45;1.37;;;0.50;;
5900;SDS011;2976;49.764;9.796;2022-10-22T09:46:19;1.13;;;0.73;;
5900;SDS011;2976;49.764;9.796;2022-10-22T09:48:51;2.17;;;0.40;;
5900;SDS011;2976;49.764;9.796;2022-10-22T09:54:17;0.60;;;0.40;;
5900;SDS011;2976;49.764;9.796;2022-10-22T09:56:46;1.43;;;0.80;;
5900;SDS011;2976;49.764;9.796;2022-10-22T09:59:33;1.53;;;0.50;;
5900;SDS011;2976;49.764;9.796;2022-10-22T10:04:32;4.83;;;0.60;;
5900;SDS011;2976;49.764;9.796;2022-10-22T10:06:59;2.57;;;0.60;;
5900;SDS011;2976;49.764;9.796;2022-10-22T10:09:25;0.90;;;0.50;;
5900;SDS011;2976;49.764;9.796;2022-10-22T10:25:28;2.10;;;0.50;;
5900;SDS011;2976;49.764;9.796;2022-10-22T10:30:59;2.40;;;0.60;;
5900;SDS011;2976;49.764;9.796;2022-10-22T10:39:03;4.53;;;1.50;;
5900;SDS011;2976;49.764;9.796;2022-10-22T10:47:12;5.70;;;0.67;;
5900;SDS011;2976;49.764;9.796;2022-10-22T10:49:42;1.03;;;0.47;;
5900;SDS011;2976;49.764;9.796;2022-10-22T10:52:23;1.83;;;0.53;;
5900;SDS011;2976;49.764;9.796;2022-10-22T10:55:12;2.80;;;1.20;;
5900;SDS011;2976;49.764;9.796;2022-10-22T11:01:02;1.40;;;0.50;;
5900;SDS011;2976;49.764;9.796;2022-10-22T11:06:20;4.10;;;0.30;;
5900;SDS011;2976;49.764;9.796;2022-10-22T11:08:51;0.93;;;0.63;;
5900;SDS011;2976;49.764;9.796;2022-10-22T11:11:24;6.23;;;0.50;;
5900;SDS011;2976;49.764;9.796;2022-10-22T11:13:56;1.60;;;0.50;;
5900;SDS011;2976;49.764;9.796;2022-10-22T11:24:54;1.57;;;0.50;;
5900;SDS011;2976;49.764;9.796;2022-10-22T11:30:20;0.30;;;0.30;;
5900;SDS011;2976;49.764;9.796;2022-10-22T11:32:52;4.30;;;0.50;;
5900;SDS011;2976;49.764;9.796;2022-10-22T11:35:22;1.50;;;0.60;;
5900;SDS011;2976;49.764;9.796;2022-10-22T11:37:50;4.63;;;0.60;;
5900;SDS011;2976;49.764;9.796;2022-10-22T11:40:21;1.67;;;0.90;;
5900;SDS011;2976;49.764;9.796;2022-10-22T11:43:05;1.37;;;0.50;;
5900;SDS011;2976;49.764;9.796;2022-10-22T11:45:40;1.73;;;0.50;;
5900;SDS011;2976;49.764;9.796;2022-10-22T11:53:30;0.67;;;0.53;;
5900;SDS011;2976;49.764;9.796;2022-10-22T11:58:33;1.70;;;0.70;;
5900;SDS011;2976;49.764;9.796;2022-10-22T12:14:15;2.60;;;0.60;;
5900;SDS011;2976;49.764;9.796;2022-10-22T12:17:09;1.07;;;0.40;;
5900;SDS011;2976;49.764;9.796;2022-10-22T12:19:41;1.03;;;0.53;;
5900;SDS011;2976;49.764;9.796;2022-10-22T12:22:25;1.03;;;0.50;;
5900;SDS011;2976;49.764;9.796;2022-10-22T12:24:55;0.60;;;0.60;;
5900;SDS011;2976;49.764;9.796;2022-10-22T12:27:26;0.53;;;0.53;;
5900;SDS011;2976;49.764;9.796;2022-10-22T12:29:58;3.17;;;0.63;;
5900;SDS011;2976;49.764;9.796;2022-10-22T12:32:34;2.10;;;0.57;;
5900;SDS011;2976;49.764;9.796;2022-10-22T12:35:13;1.47;;;0.60;;
5900;SDS011;2976;49.764;9.796;2022-10-22T12:37:41;0.57;;;0.50;;
5900;SDS011;2976;49.764;9.796;2022-10-22T12:40:20;0.93;;;0.40;;
5900;SDS011;2976;49.764;9.796;2022-10-22T12:42:54;6.90;;;0.63;;
5900;SDS011;2976;49.764;9.796;2022-10-22T12:45:27;5.43;;;1.10;;
5900;SDS011;2976;49.764;9.796;2022-10-22T12:47:55;7.50;;;3.07;;
5900;SDS011;2976;49.764;9.796;2022-10-22T12:53:02;2.13;;;0.60;;
5900;SDS011;2976;49.764;9.796;2022-10-22T12:55:37;1.80;;;0.77;;
5900;SDS011;2976;49.764;9.796;2022-10-22T12:58:04;0.70;;;0.60;;
5900;SDS011;2976;49.764;9.796;2022-10-22T13:00:31;0.90;;;0.80;;
5900;SDS011;2976;49.764;9.796;2022-10-22T13:03:04;1.77;;;0.67;;
5900;SDS011;2976;49.764;9.796;2022-10-22T13:05:31;2.10;;;0.80;;
5900;SDS011;2976;49.764;9.796;2022-10-22T13:08:06;2.50;;;0.77;;
5900;SDS011;2976;49.764;9.796;2022-10-22T13:10:36;0.90;;;0.60;;
5900;SDS011;2976;49.764;9.796;2022-10-22T13:13:03;3.00;;;2.00;;
5900;SDS011;2976;49.764;9.796;2022-10-22T13:18:05;1.47;;;0.70;;
5900;SDS011;2976;49.764;9.796;2022-10-22T13:20:58;2.87;;;0.93;;
5900;SDS011;2976;49.764;9.796;2022-10-22T13:23:28;0.50;;;0.50;;
5900;SDS011;2976;49.764;9.796;2022-10-22T13:28:23;1.43;;;0.70;;
5900;SDS011;2976;49.764;9.796;2022-10-22T13:30:54;1.80;;;0.50;;
5900;SDS011;2976;49.764;9.796;2022-10-22T13:33:36;1.47;;;0.70;;
5900;SDS011;2976;49.764;9.796;2022-10-22T13:36:04;3.07;;;0.70;;
5900;SDS011;2976;49.764;9.796;2022-10-22T13:38:30;2.00;;;0.70;;
5900;SDS011;2976;49.764;9.796;2022-10-22T13:40:55;6.57;;;0.73;;
5900;SDS011;2976;49.764;9.796;2022-10-22T13:43:22;2.03;;;0.80;;
5900;SDS011;2976;49.764;9.796;2022-10-22T13:45:51;6.63;;;1.60;;
5900;SDS011;2976;49.764;9.796;2022-10-22T13:48:19;6.30;;;1.10;;
5900;SDS011;2976;49.764;9.796;2022-10-22T13:50:47;3.07;;;0.77;;
5900;SDS011;2976;49.764;9.796;2022-10-22T13:53:23;2.23;;;0.90;;
5900;SDS011;2976;49.764;9.796;2022-10-22T13:55:50;1.63;;;0.60;;
5900;SDS011;2976;49.764;9.796;2022-10-22T13:58:17;2.47;;;0.80;;
5900;SDS011;2976;49.764;9.796;2022-10-22T14:00:45;0.80;;;0.70;;
5900;SDS011;2976;49.764;9.796;2022-10-22T14:03:14;2.10;;;0.87;;
5900;SDS011;2976;49.764;9.796;2022-10-22T14:05:47;6.60;;;1.00;;
5900;SDS011;2976;49.764;9.796;2022-10-22T14:08:14;0.60;;;0.53;;
5900;SDS011;2976;49.764;9.796;2022-10-22T14:10:41;2.27;;;0.60;;
5900;SDS011;2976;49.764;9.796;2022-10-22T14:13:10;2.17;;;0.80;;
5900;SDS011;2976;49.764;9.796;2022-10-22T14:15:37;2.20;;;0.60;;
5900;SDS011;2976;49.764;9.796;2022-10-22T14:18:03;3.23;;;1.03;;
5900;SDS011;2976;49.764;9.796;2022-10-22T14:20:30;2.40;;;0.77;;
5900;SDS011;2976;49.764;9.796;2022-10-22T14:25:53;3.30;;;0.80;;
5900;SDS011;2976;49.764;9.796;2022-10-22T14:28:19;7.17;;;1.20;;
5900;SDS011;2976;49.764;9.796;2022-10-22T14:30:45;2.63;;;0.60;;
5900;SDS011;2976;49.764;9.796;2022-10-22T14:35:41;1.37;;;0.60;;
5900;SDS011;2976;49.764;9.796;2022-10-22T14:38:06;6.00;;;1.10;;
5900;SDS011;2976;49.764;9.796;2022-10-22T14:40:32;2.93;;;0.60;;
5900;SDS011;2976;49.764;9.796;2022-10-22T14:42:58;1.30;;;0.70;;
5900;SDS011;2976;49.764;9.796;2022-10-22T14:45:24;1.80;;;0.53;;
5900;SDS011;2976;49.764;9.796;2022-10-22T14:47:51;3.27;;;0.83;;
5900;SDS011;2976;49.764;9.796;2022-10-22T14:50:19;2.30;;;0.57;;
5900;SDS011;2976;49.764;9.796;2022-10-22T14:52:45;1.87;;;0.80;;
5900;SDS011;2976;49.764;9.796;2022-10-22T14:55:13;3.07;;;1.30;;
5900;SDS011;2976;49.764;9.796;2022-10-22T14:57:39;3.30;;;0.90;;
5900;SDS011;2976;49.764;9.796;2022-10-22T15:00:06;3.57;;;1.00;;
5900;SDS011;2976;49.764;9.796;2022-10-22T15:02:42;0.70;;;0.70;;
5900;SDS011;2976;49.764;9.796;2022-10-22T15:05:08;5.33;;;1.10;;
5900;SDS011;2976;49.764;9.796;2022-10-22T15:07:34;3.93;;;0.70;;
5900;SDS011;2976;49.764;9.796;2022-10-22T15:10:00;3.23;;;0.80;;
5900;SDS011;2976;49.764;9.796;2022-10-22T15:12:26;3.50;;;0.80;;
5900;SDS011;2976;49.764;9.796;2022-10-22T15:14:51;3.60;;;0.97;;
5900;SDS011;2976;49.764;9.796;2022-10-22T15:17:17;1.80;;;0.77;;
5900;SDS011;2976;49.764;9.796;2022-10-22T15:19:43;2.00;;;1.07;;
5900;SDS011;2976;49.764;9.796;2022-10-22T15:22:12;3.27;;;0.90;;
5900;SDS011;2976;49.764;9.796;2022-10-22T15:24:38;2.47;;;0.77;;
5900;SDS011;2976;49.764;9.796;2022-10-22T15:27:07;0.63;;;0.43;;
5900;SDS011;2976;49.764;9.796;2022-10-22T15:29:33;2.93;;;0.93;;
5900;SDS011;2976;49.764;9.796;2022-10-22T15:31:58;2.00;;;0.60;;
5900;SDS011;2976;49.764;9.796;2022-10-22T15:34:28;3.17;;;0.70;;
5900;SDS011;2976;49.764;9.796;2022-10-22T15:36:56;4.40;;;1.00;;
5900;SDS011;2976;49.764;9.796;2022-10-22T15:39:24;5.20;;;0.80;;
5900;SDS011;2976;49.764;9.796;2022-10-22T15:41:50;4.27;;;0.83;;
5900;SDS011;2976;49.764;9.796;2022-10-22T15:44:17;3.77;;;1.00;;
5900;SDS011;2976;49.764;9.796;2022-10-22T15:46:45;5.30;;;1.00;;
5900;SDS011;2976;49.764;9.796;2022-10-22T15:49:11;3.20;;;0.60;;
5900;SDS011;2976;49.764;9.796;2022-10-22T15:51:37;2.67;;;1.00;;
5900;SDS011;2976;49.764;9.796;2022-10-22T15:54:02;5.23;;;0.90;;
5900;SDS011;2976;49.764;9.796;2022-10-22T15:56:29;0.50;;;0.43;;
5900;SDS011;2976;49.764;9.796;2022-10-22T15:58:56;1.20;;;1.10;;
5900;SDS011;2976;49.764;9.796;2022-10-22T16:01:23;4.00;;;0.80;;
5900;SDS011;2976;49.764;9.796;2022-10-22T16:03:50;1.30;;;0.80;;
5900;SDS011;2976;49.764;9.796;2022-10-22T16:06:17;3.53;;;0.90;;
5900;SDS011;2976;49.764;9.796;2022-10-22T16:08:43;1.73;;;0.87;;
5900;SDS011;2976;49.764;9.796;2022-10-22T16:11:09;2.13;;;0.70;;
5900;SDS011;2976;49.764;9.796;2022-10-22T16:13:34;11.60;;;1.07;;
5900;SDS011;2976;49.764;9.796;2022-10-22T16:16:03;2.00;;;0.63;;
5900;SDS011;2976;49.764;9.796;2022-10-22T16:18:31;4.43;;;0.80;;
5900;SDS011;2976;49.764;9.796;2022-10-22T16:20:56;0.93;;;0.90;;
5900;SDS011;2976;49.764;9.796;2022-10-22T16:23:22;6.20;;;1.27;;
5900;SDS011;2976;49.764;9.796;2022-10-22T16:25:48;5.17;;;0.97;;
5900;SDS011;2976;49.764;9.796;2022-10-22T16:28:13;0.87;;;0.80;;
5900;SDS011;2976;49.764;9.796;2022-10-22T16:30:39;3.03;;;1.37;;
5900;SDS011;2976;49.764;9.796;2022-10-22T16:33:05;5.93;;;1.00;;
5900;SDS011;2976;49.764;9.796;2022-10-22T16:35:32;2.83;;;1.00;;
5900;SDS011;2976;49.764;9.796;2022-10-22T16:37:57;2.77;;;1.10;;
5900;SDS011;2976;49.764;9.796;2022-10-22T16:40:23;3.40;;;1.77;;
5900;SDS011;2976;49.764;9.796;2022-10-22T16:42:49;7.20;;;2.00;;
5900;SDS011;2976;49.764;9.796;2022-10-22T16:45:15;9.60;;;2.10;;
5900;SDS011;2976;49.764;9.796;2022-10-22T16:47:40;2.03;;;1.33;;
5900;SDS011;2976;49.764;9.796;2022-10-22T16:50:07;10.13;;;2.17;;
5900;SDS011;2976;49.764;9.796;2022-10-22T16:52:33;4.30;;;1.60;;
5900;SDS011;2976;49.764;9.796;2022-10-22T16:54:59;4.03;;;1.50;;
5900;SDS011;2976;49.764;9.796;2022-10-22T16:57:25;3.63;;;1.10;;
5900;SDS011;2976;49.764;9.796;2022-10-22T16:59:51;2.73;;;1.10;;
5900;SDS011;2976;49.764;9.796;2022-10-22T17:02:17;9.40;;;1.80;;
5900;SDS011;2976;49.764;9.796;2022-10-22T17:04:43;1.50;;;1.27;;
5900;SDS011;2976;49.764;9.796;2022-10-22T17:07:08;4.80;;;1.50;;
5900;SDS011;2976;49.764;9.796;2022-10-22T17:09:34;2.70;;;1.87;;
5900;SDS011;2976;49.764;9.796;2022-10-22T17:11:59;7.13;;;1.93;;
5900;SDS011;2976;49.764;9.796;2022-10-22T17:14:25;2.30;;;1.33;;
5900;SDS011;2976;49.764;9.796;2022-10-22T17:16:50;1.97;;;1.77;;
5900;SDS011;2976;49.764;9.796;2022-10-22T17:19:19;9.90;;;1.50;;
5900;SDS011;2976;49.764;9.796;2022-10-22T17:21:46;4.83;;;1.43;;
5900;SDS011;2976;49.764;9.796;2022-10-22T17:24:17;5.10;;;2.70;;
5900;SDS011;2976;49.764;9.796;2022-10-22T17:26:43;10.73;;;3.43;;
5900;SDS011;2976;49.764;9.796;2022-10-22T17:29:09;10.60;;;3.20;;